createdAt,value
2023-05-04T00:01:30.558Z,10.17
2023-05-04T00:03:57.699Z,11.10
2023-05-04T00:06:24.584Z,9.97
2023-05-04T00:08:51.401Z,12.17
2023-05-04T00:11:18.197Z,11.53
2023-05-04T00:13:45.919Z,11.10
2023-05-04T00:16:12.991Z,12.00
2023-05-04T00:18:39.770Z,11.00
2023-05-04T00:21:06.570Z,10.63
2023-05-04T00:23:33.471Z,11.43
2023-05-04T00:26:00.490Z,11.93
2023-05-04T00:28:27.518Z,10.93
2023-05-04T00:30:55.036Z,11.97
2023-05-04T00:33:22.514Z,12.37
2023-05-04T00:35:49.346Z,10.80
2023-05-04T00:38:16.904Z,11.90
2023-05-04T00:40:43.616Z,12.67
2023-05-04T00:43:10.828Z,12.57
2023-05-04T00:45:38.280Z,11.37
2023-05-04T00:48:06.345Z,11.53
2023-05-04T00:50:33.884Z,12.33
2023-05-04T00:53:08.266Z,12.50
2023-05-04T00:55:38.391Z,12.30
2023-05-04T00:58:06.459Z,13.80
2023-05-04T01:00:33.196Z,11.37
2023-05-04T01:03:00.073Z,11.77
2023-05-04T01:05:30.785Z,12.50
2023-05-04T01:08:09.806Z,12.53
2023-05-04T01:10:47.157Z,12.83
2023-05-04T01:13:16.412Z,12.03
2023-05-04T01:15:43.844Z,13.27
2023-05-04T01:18:10.989Z,13.03
2023-05-04T01:20:37.853Z,12.53
2023-05-04T01:23:04.973Z,13.00
2023-05-04T01:26:09.917Z,14.00
2023-05-04T01:28:46.481Z,12.33
2023-05-04T01:31:17.154Z,11.90
2023-05-04T01:33:45.126Z,12.97
2023-05-04T01:36:12.009Z,12.17
2023-05-04T01:38:38.844Z,12.13
2023-05-04T01:41:05.624Z,13.90
2023-05-04T01:43:32.519Z,12.13
2023-05-04T01:45:59.263Z,12.53
2023-05-04T01:48:27.973Z,14.07
2023-05-04T01:50:55.923Z,13.67
2023-05-04T01:53:22.768Z,12.13
2023-05-04T01:55:49.609Z,12.10
2023-05-04T01:58:18.310Z,11.77
2023-05-04T02:00:45.666Z,12.70
2023-05-04T02:03:13.096Z,13.37
2023-05-04T02:05:39.917Z,12.63
2023-05-04T02:08:06.891Z,13.50
2023-05-04T02:10:33.742Z,13.40
2023-05-04T02:13:01.234Z,12.57
2023-05-04T02:15:28.070Z,13.57
2023-05-04T02:17:55.325Z,13.27
2023-05-04T02:20:22.121Z,12.57
2023-05-04T02:22:48.834Z,13.47
2023-05-04T02:25:15.949Z,12.50
2023-05-04T02:27:42.927Z,11.73
2023-05-04T02:30:10.233Z,12.93
2023-05-04T02:32:37.118Z,13.13
2023-05-04T02:35:04.036Z,12.23
2023-05-04T02:37:30.825Z,12.27
2023-05-04T02:39:57.611Z,11.93
2023-05-04T02:42:24.448Z,11.93
2023-05-04T02:44:51.278Z,12.47
2023-05-04T02:47:18.058Z,12.07
2023-05-04T02:49:44.826Z,12.40
2023-05-04T02:52:11.639Z,11.33
2023-05-04T02:54:38.872Z,11.07
2023-05-04T02:57:07.054Z,12.10
2023-05-04T02:59:34.176Z,11.97
2023-05-04T03:02:01.086Z,11.87
2023-05-04T03:04:27.972Z,12.17
2023-05-04T03:06:54.824Z,11.07
2023-05-04T03:09:21.709Z,12.33
2023-05-04T03:11:48.551Z,11.70
2023-05-04T03:14:15.325Z,13.00
2023-05-04T03:16:42.237Z,13.07
2023-05-04T03:19:09.404Z,11.93
2023-05-04T03:21:36.416Z,11.83
2023-05-04T03:24:03.629Z,12.30
2023-05-04T03:26:30.386Z,11.93
2023-05-04T03:28:57.482Z,11.80
2023-05-04T03:31:24.278Z,12.07
2023-05-04T03:33:51.253Z,13.03
2023-05-04T03:36:17.993Z,11.73
2023-05-04T03:38:44.812Z,12.10
2023-05-04T03:41:11.499Z,12.47
2023-05-04T03:43:38.630Z,12.70
2023-05-04T03:46:05.764Z,11.57
2023-05-04T03:48:32.582Z,12.93
2023-05-04T03:50:59.468Z,12.67
2023-05-04T03:53:26.253Z,13.80
2023-05-04T03:55:52.964Z,13.47
2023-05-04T03:58:19.655Z,12.53
2023-05-04T04:00:46.633Z,13.23
2023-05-04T04:03:13.489Z,13.27
2023-05-04T04:05:40.444Z,12.93
2023-05-04T04:08:07.200Z,16.33
2023-05-04T04:10:34.905Z,15.90
2023-05-04T04:13:01.901Z,14.60
2023-05-04T04:15:28.810Z,14.83
2023-05-04T04:17:56.029Z,14.40
2023-05-04T04:20:22.891Z,14.73
2023-05-04T04:22:49.865Z,15.63
2023-05-04T04:25:16.591Z,16.67
2023-05-04T04:27:43.341Z,17.47
2023-05-04T04:30:11.152Z,17.17
2023-05-04T04:32:38.275Z,16.90
2023-05-04T04:35:05.510Z,17.03
2023-05-04T04:37:32.323Z,17.20
2023-05-04T04:39:59.130Z,15.77
2023-05-04T04:42:26.287Z,16.73
2023-05-04T04:44:53.459Z,17.60
2023-05-04T04:47:20.207Z,17.70
2023-05-04T04:49:47.777Z,17.00
2023-05-04T04:52:15.599Z,15.93
2023-05-04T04:54:42.557Z,16.33
2023-05-04T04:57:10.297Z,18.10
2023-05-04T04:59:38.101Z,17.37
2023-05-04T05:02:04.998Z,16.87
2023-05-04T05:04:32.030Z,18.20
2023-05-04T05:06:58.963Z,16.43
2023-05-04T05:09:26.591Z,15.33
2023-05-04T05:11:53.747Z,16.37
2023-05-04T05:14:20.770Z,19.10
2023-05-04T05:16:48.149Z,18.83
2023-05-04T05:19:15.406Z,16.40
2023-05-04T05:21:42.238Z,17.23
2023-05-04T05:24:09.205Z,17.63
2023-05-04T05:26:36.511Z,19.40
2023-05-04T05:29:03.305Z,18.80
2023-05-04T05:31:30.105Z,17.23
2023-05-04T05:33:57.163Z,17.63
2023-05-04T05:36:24.144Z,18.00
2023-05-04T05:38:51.070Z,18.30
2023-05-04T05:41:18.128Z,18.77
2023-05-04T05:43:44.995Z,17.40
2023-05-04T05:46:12.513Z,17.70
2023-05-04T05:48:39.374Z,17.50
2023-05-04T05:51:06.271Z,18.70
2023-05-04T05:53:33.137Z,18.30
2023-05-04T05:55:59.996Z,17.73
2023-05-04T05:58:27.148Z,17.50
2023-05-04T06:00:53.960Z,17.40
2023-05-04T06:03:21.094Z,17.90
2023-05-04T06:05:59.697Z,19.20
2023-05-04T06:08:26.466Z,17.93
2023-05-04T06:10:54.591Z,19.17
2023-05-04T06:13:21.382Z,18.20
2023-05-04T06:15:52.755Z,17.80
2023-05-04T06:18:20.304Z,18.37
2023-05-04T06:20:47.299Z,17.07
2023-05-04T06:23:15.799Z,18.47
2023-05-04T06:25:42.675Z,19.20
2023-05-04T06:28:09.468Z,17.93
2023-05-04T06:30:36.682Z,18.03
2023-05-04T06:33:04.480Z,17.50
2023-05-04T06:35:31.593Z,17.23
2023-05-04T06:37:58.654Z,17.87
2023-05-04T06:40:26.813Z,19.47
2023-05-04T06:42:53.642Z,16.50
2023-05-04T06:45:20.889Z,19.33
2023-05-04T06:47:47.810Z,17.53
2023-05-04T06:50:15.056Z,18.50
2023-05-04T06:52:44.766Z,19.27
2023-05-04T06:55:11.661Z,19.17
2023-05-04T06:57:38.476Z,19.57
2023-05-04T07:00:06.343Z,19.53
2023-05-04T07:02:33.451Z,17.60
2023-05-04T07:05:00.884Z,19.20
2023-05-04T07:07:28.138Z,18.47
2023-05-04T07:09:54.844Z,20.20
2023-05-04T07:12:21.818Z,19.67
2023-05-04T07:14:49.084Z,19.43
2023-05-04T07:17:15.967Z,18.83
2023-05-04T07:19:44.356Z,19.13
2023-05-04T07:22:11.333Z,20.77
2023-05-04T07:24:39.491Z,18.93
2023-05-04T07:27:06.478Z,18.37
2023-05-04T07:29:33.298Z,19.77
2023-05-04T07:32:00.239Z,19.27
2023-05-04T07:34:37.791Z,18.93
2023-05-04T07:37:11.721Z,18.27
2023-05-04T07:39:38.969Z,19.57
2023-05-04T07:42:07.055Z,18.83
2023-05-04T07:44:34.057Z,18.07
2023-05-04T07:47:01.910Z,19.47
2023-05-04T07:49:28.933Z,19.07
2023-05-04T07:51:55.795Z,17.43
2023-05-04T07:54:23.104Z,19.37
2023-05-04T07:56:50.584Z,18.97
2023-05-04T07:59:20.958Z,18.90
2023-05-04T08:01:47.860Z,17.90
2023-05-04T08:04:14.691Z,18.63
2023-05-04T08:06:41.700Z,18.97
2023-05-04T08:09:08.673Z,19.50
2023-05-04T08:11:35.475Z,18.00
2023-05-04T08:14:02.679Z,18.83
2023-05-04T08:16:29.816Z,16.43
2023-05-04T08:18:57.246Z,18.67
2023-05-04T08:21:24.268Z,16.70
2023-05-04T08:23:51.106Z,18.33
2023-05-04T08:26:18.008Z,16.97
2023-05-04T08:28:46.197Z,17.80
2023-05-04T08:31:14.569Z,17.33
2023-05-04T08:33:41.440Z,19.87
2023-05-04T08:36:09.456Z,18.23
2023-05-04T08:38:36.585Z,17.13
2023-05-04T08:41:04.242Z,20.43
2023-05-04T08:43:34.022Z,19.73
2023-05-04T08:46:01.038Z,17.37
2023-05-04T08:48:27.789Z,18.23
2023-05-04T08:50:55.340Z,18.20
2023-05-04T08:53:23.554Z,17.97
2023-05-04T08:55:53.764Z,17.77
2023-05-04T08:58:25.599Z,17.87
2023-05-04T09:00:53.702Z,17.40
2023-05-04T09:03:21.367Z,17.43
2023-05-04T09:05:50.927Z,17.43
2023-05-04T09:08:18.581Z,17.37
2023-05-04T09:10:45.507Z,17.60
2023-05-04T09:13:12.764Z,18.27
2023-05-04T09:15:39.805Z,16.90
2023-05-04T09:18:09.906Z,17.33
2023-05-04T09:20:47.793Z,16.67
2023-05-04T09:23:15.780Z,16.00
2023-05-04T09:25:51.346Z,15.50
2023-05-04T09:28:19.171Z,15.87
2023-05-04T09:30:48.122Z,16.90
2023-05-04T09:33:25.175Z,15.83
2023-05-04T09:35:52.188Z,15.33
2023-05-04T09:38:29.884Z,16.90
2023-05-04T09:40:57.262Z,16.03
2023-05-04T09:43:27.267Z,15.13
2023-05-04T09:45:54.501Z,16.43
2023-05-04T09:48:26.858Z,15.73
2023-05-04T09:50:57.346Z,16.53
2023-05-04T09:53:38.043Z,15.93
2023-05-04T09:56:40.099Z,15.07
2023-05-04T09:59:07.992Z,14.90
2023-05-04T10:01:34.946Z,16.47
2023-05-04T10:04:03.038Z,16.33
2023-05-04T10:06:33.153Z,16.63
2023-05-04T10:09:03.810Z,14.57
2023-05-04T10:11:32.174Z,15.30
2023-05-04T10:13:59.029Z,15.97
2023-05-04T10:16:45.211Z,15.93
2023-05-04T10:19:30.107Z,16.43
2023-05-04T10:22:18.413Z,15.47
2023-05-04T10:25:28.037Z,14.67
2023-05-04T10:27:54.801Z,15.23
2023-05-04T10:30:22.898Z,14.47
2023-05-04T10:32:58.072Z,13.23
2023-05-04T10:35:25.647Z,15.57
2023-05-04T10:37:54.548Z,14.63
2023-05-04T10:40:42.134Z,13.20
2023-05-04T10:43:11.690Z,13.63
2023-05-04T10:45:40.230Z,13.40
2023-05-04T10:48:08.616Z,13.47
2023-05-04T10:50:51.661Z,13.17
2023-05-04T10:53:18.916Z,12.77
2023-05-04T10:55:48.035Z,14.53
2023-05-04T10:58:16.675Z,13.33
2023-05-04T11:00:47.980Z,13.70
2023-05-04T11:03:15.400Z,13.83
2023-05-04T11:05:47.583Z,14.30
2023-05-04T11:08:15.807Z,13.90
2023-05-04T11:10:42.719Z,14.07
2023-05-04T11:13:12.484Z,14.03
2023-05-04T11:15:49.857Z,13.20
2023-05-04T11:18:31.061Z,13.00
2023-05-04T11:20:58.695Z,13.00
2023-05-04T11:23:26.019Z,12.70
2023-05-04T11:25:53.125Z,13.50
2023-05-04T11:28:20.094Z,12.80
2023-05-04T11:30:47.779Z,12.40
2023-05-04T11:33:19.445Z,12.30
2023-05-04T11:35:46.614Z,12.63
2023-05-04T11:38:20.153Z,12.47
2023-05-04T11:40:50.428Z,12.27
2023-05-04T11:43:17.789Z,12.80
2023-05-04T11:45:47.191Z,11.00
2023-05-04T11:48:15.023Z,11.60
2023-05-04T11:50:46.055Z,11.40
2023-05-04T11:53:13.816Z,10.63
2023-05-04T11:55:41.912Z,10.57
2023-05-04T11:58:11.586Z,9.73
2023-05-04T12:00:49.866Z,10.63
2023-05-04T12:03:25.988Z,9.90
2023-05-04T12:05:58.422Z,8.87
2023-05-04T12:08:42.415Z,10.17
2023-05-04T12:11:26.493Z,9.47
2023-05-04T12:14:10.917Z,9.60
2023-05-04T12:16:39.345Z,9.53
2023-05-04T12:19:13.326Z,9.20
2023-05-04T12:21:54.211Z,8.87
2023-05-04T12:24:25.158Z,8.97
2023-05-04T12:26:52.102Z,9.87
2023-05-04T12:29:18.982Z,8.27
2023-05-04T12:31:45.784Z,8.13
2023-05-04T12:34:12.609Z,8.27
2023-05-04T12:36:39.485Z,9.03
2023-05-04T12:39:06.289Z,8.43
2023-05-04T12:41:33.493Z,8.87
2023-05-04T12:44:00.952Z,8.53
2023-05-04T12:46:27.789Z,8.10
2023-05-04T12:48:54.667Z,7.83
2023-05-04T12:51:21.533Z,9.67
2023-05-04T12:53:48.276Z,7.40
2023-05-04T12:56:15.052Z,8.20
2023-05-04T12:58:41.831Z,8.83
2023-05-04T13:01:08.699Z,8.10
2023-05-04T13:03:35.652Z,9.27
2023-05-04T13:06:02.579Z,9.00
2023-05-04T13:08:29.602Z,8.57
2023-05-04T13:10:56.861Z,8.83
2023-05-04T13:13:28.608Z,8.83
2023-05-04T13:15:56.614Z,9.67
2023-05-04T13:18:27.795Z,9.20
2023-05-04T13:20:55.889Z,9.13
2023-05-04T13:23:23.584Z,8.07
2023-05-04T13:25:50.913Z,8.63
2023-05-04T13:28:18.240Z,9.07
2023-05-04T13:30:45.183Z,8.93
2023-05-04T13:33:24.931Z,8.43
2023-05-04T13:35:56.198Z,9.00
2023-05-04T13:38:22.989Z,8.47
2023-05-04T13:40:49.769Z,8.17
2023-05-04T13:43:16.526Z,7.47
2023-05-04T13:45:43.261Z,8.63
2023-05-04T13:48:10.065Z,7.70
2023-05-04T13:50:37.018Z,8.00
2023-05-04T13:53:03.872Z,9.07
2023-05-04T13:55:30.734Z,8.77
2023-05-04T13:57:57.490Z,8.97
2023-05-04T14:00:24.339Z,8.03
2023-05-04T14:02:51.304Z,9.37
2023-05-04T14:05:18.371Z,8.63
2023-05-04T14:07:45.169Z,9.23
2023-05-04T14:10:13.092Z,8.60
2023-05-04T14:12:39.904Z,10.03
2023-05-04T14:15:07.590Z,9.50
2023-05-04T14:17:34.547Z,8.83
2023-05-04T14:20:01.728Z,9.03
2023-05-04T14:22:28.759Z,8.73
2023-05-04T14:24:55.708Z,9.23
2023-05-04T14:27:22.778Z,9.70
2023-05-04T14:29:49.543Z,8.47
2023-05-04T14:32:16.568Z,9.27
2023-05-04T14:34:43.832Z,9.50
2023-05-04T14:37:10.825Z,8.93
2023-05-04T14:39:39.492Z,8.37
2023-05-04T14:42:06.252Z,8.53
2023-05-04T14:44:32.947Z,10.10
2023-05-04T14:46:59.752Z,8.63
2023-05-04T14:49:36.681Z,8.70
2023-05-04T14:52:04.592Z,8.23
2023-05-04T14:54:31.374Z,7.50
2023-05-04T14:56:59.070Z,6.77
2023-05-04T14:59:26.432Z,7.90
2023-05-04T15:01:54.836Z,8.07
2023-05-04T15:04:22.091Z,8.37
2023-05-04T15:06:49.500Z,8.97
2023-05-04T15:09:16.657Z,6.23
2023-05-04T15:11:43.504Z,7.00
2023-05-04T15:14:10.436Z,8.00
2023-05-04T15:16:37.363Z,7.27
2023-05-04T15:19:04.373Z,7.83
2023-05-04T15:21:31.788Z,9.03
2023-05-04T15:23:58.809Z,8.67
2023-05-04T15:26:25.920Z,8.23
2023-05-04T15:28:54.063Z,7.47
2023-05-04T15:31:21.413Z,9.27
2023-05-04T15:33:51.598Z,8.70
2023-05-04T15:36:18.478Z,9.27
2023-05-04T15:38:45.463Z,9.60
2023-05-04T15:41:14.177Z,9.20
2023-05-04T15:43:41.098Z,9.63
2023-05-04T15:46:07.935Z,9.67
2023-05-04T15:48:34.793Z,10.03
2023-05-04T15:51:01.585Z,9.97
2023-05-04T15:53:28.451Z,11.47
2023-05-04T15:55:55.342Z,12.13
2023-05-04T15:58:22.121Z,11.97
2023-05-04T16:00:49.472Z,12.37
2023-05-04T16:03:16.382Z,12.60
2023-05-04T16:05:43.972Z,13.93
2023-05-04T16:08:11.605Z,13.60
2023-05-04T16:10:38.442Z,13.97
2023-05-04T16:13:05.491Z,13.90
2023-05-04T16:15:32.577Z,14.40
2023-05-04T16:18:00.076Z,15.87
2023-05-04T16:20:28.340Z,15.70
2023-05-04T16:22:55.710Z,16.33
2023-05-04T16:25:22.482Z,16.93
2023-05-04T16:27:49.304Z,18.37
2023-05-04T16:30:17.256Z,18.43
2023-05-04T16:32:44.599Z,19.83
2023-05-04T16:35:11.476Z,19.20
2023-05-04T16:37:38.779Z,19.50
2023-05-04T16:40:10.894Z,19.77
2023-05-04T16:42:37.634Z,20.00
2023-05-04T16:45:06.116Z,19.80
2023-05-04T16:47:32.965Z,21.10
2023-05-04T16:49:59.773Z,19.57
2023-05-04T16:52:27.006Z,19.07
2023-05-04T16:54:54.068Z,20.57
2023-05-04T16:57:20.828Z,22.33
2023-05-04T16:59:47.591Z,21.87
2023-05-04T17:02:14.315Z,22.73
2023-05-04T17:04:41.033Z,21.93
2023-05-04T17:07:10.185Z,22.87
2023-05-04T17:09:37.660Z,22.57
2023-05-04T17:12:04.835Z,22.40
2023-05-04T17:14:31.749Z,21.43
2023-05-04T17:16:58.909Z,21.77
2023-05-04T17:19:25.849Z,22.67
2023-05-04T17:21:52.764Z,22.43
2023-05-04T17:24:20.442Z,23.73
2023-05-04T17:26:47.246Z,23.40
2023-05-04T17:29:14.053Z,23.07
2023-05-04T17:31:41.214Z,21.60
2023-05-04T17:34:08.047Z,22.23
2023-05-04T17:36:34.981Z,21.20
2023-05-04T17:39:01.685Z,21.87
2023-05-04T17:41:28.488Z,22.43
2023-05-04T17:43:56.395Z,22.60
2023-05-04T17:46:25.007Z,23.30
2023-05-04T17:48:53.441Z,22.67
2023-05-04T17:51:22.951Z,23.50
2023-05-04T17:53:49.918Z,22.53
2023-05-04T17:56:16.704Z,22.30
2023-05-04T17:58:43.400Z,21.53
2023-05-04T18:01:10.578Z,23.27
2023-05-04T18:03:37.473Z,21.80
2023-05-04T18:06:05.743Z,22.13
2023-05-04T18:08:33.101Z,22.50
2023-05-04T18:11:00.293Z,21.27
2023-05-04T18:13:27.372Z,22.47
2023-05-04T18:15:54.471Z,22.80
2023-05-04T18:18:21.231Z,22.77
2023-05-04T18:20:47.927Z,22.80
2023-05-04T18:23:14.728Z,24.50
2023-05-04T18:25:41.678Z,23.47
2023-05-04T18:28:08.873Z,22.70
2023-05-04T18:30:36.003Z,22.47
2023-05-04T18:33:03.341Z,22.67
2023-05-04T18:35:32.609Z,25.07
2023-05-04T18:38:00.000Z,23.10
2023-05-04T18:40:26.877Z,24.03
2023-05-04T18:42:53.702Z,22.87
2023-05-04T18:45:20.681Z,23.67
2023-05-04T18:47:47.492Z,23.13
2023-05-04T18:50:14.738Z,21.67
2023-05-04T18:52:41.951Z,22.90
2023-05-04T18:55:09.052Z,20.93
2023-05-04T18:57:36.241Z,21.73
2023-05-04T19:00:06.995Z,22.70
2023-05-04T19:02:34.165Z,21.67
2023-05-04T19:05:00.997Z,22.93
2023-05-04T19:07:27.833Z,22.40
2023-05-04T19:09:55.447Z,21.47
2023-05-04T19:12:22.870Z,22.13
2023-05-04T19:14:51.388Z,22.37
2023-05-04T19:17:19.020Z,21.87
2023-05-04T19:19:46.446Z,22.10
2023-05-04T19:22:15.639Z,22.33
2023-05-04T19:24:42.764Z,22.70
2023-05-04T19:27:09.927Z,22.57
2023-05-04T19:29:36.787Z,21.67
2023-05-04T19:32:15.707Z,24.47
2023-05-04T19:34:47.000Z,22.57
2023-05-04T19:37:13.720Z,21.80
2023-05-04T19:39:40.808Z,23.13
2023-05-04T19:42:07.872Z,21.87
2023-05-04T19:44:34.707Z,23.50
2023-05-04T19:47:01.652Z,22.63
2023-05-04T19:49:28.726Z,23.77
2023-05-04T19:51:55.703Z,22.47
2023-05-04T19:54:22.578Z,23.90
2023-05-04T19:56:49.272Z,23.10
2023-05-04T19:59:16.048Z,22.70
2023-05-04T20:01:42.841Z,21.97
2023-05-04T20:04:09.649Z,21.80
2023-05-04T20:06:38.626Z,22.20
2023-05-04T20:09:05.508Z,20.67
2023-05-04T20:11:32.673Z,21.73
2023-05-04T20:13:59.853Z,21.47
2023-05-04T20:16:27.207Z,20.63
2023-05-04T20:18:53.939Z,21.73
2023-05-04T20:21:20.694Z,20.10
2023-05-04T20:23:47.445Z,21.80
2023-05-04T20:26:14.270Z,19.90
2023-05-04T20:28:41.644Z,21.00
2023-05-04T20:31:09.203Z,20.20
2023-05-04T20:33:36.189Z,20.57
2023-05-04T20:36:06.052Z,19.97
2023-05-04T20:38:33.235Z,18.93
2023-05-04T20:41:09.543Z,19.53
2023-05-04T20:43:39.368Z,19.13
2023-05-04T20:46:06.799Z,19.77
2023-05-04T20:48:35.228Z,18.37
2023-05-04T20:51:13.494Z,19.03
2023-05-04T20:53:41.460Z,18.87
2023-05-04T20:56:08.735Z,17.47
2023-05-04T20:58:35.611Z,16.73
2023-05-04T21:01:03.787Z,19.90
2023-05-04T21:03:30.953Z,19.63
2023-05-04T21:05:58.034Z,17.97
2023-05-04T21:08:25.079Z,15.97
2023-05-04T21:10:52.478Z,10.83
2023-05-04T21:13:19.630Z,13.50
2023-05-04T21:15:46.977Z,14.63
2023-05-04T21:18:13.881Z,17.37
2023-05-04T21:20:41.532Z,16.07
2023-05-04T21:23:08.675Z,17.30
2023-05-04T21:25:35.837Z,12.70
2023-05-04T21:28:02.619Z,12.53
2023-05-04T21:30:29.509Z,12.70
2023-05-04T21:32:56.287Z,9.33
2023-05-04T21:35:23.971Z,5.50
2023-05-04T21:37:50.961Z,3.70
2023-05-04T21:40:17.789Z,3.87
2023-05-04T21:42:44.511Z,3.00
2023-05-04T21:45:11.678Z,2.40
2023-05-04T21:47:38.525Z,2.17
2023-05-04T21:50:06.418Z,2.30
2023-05-04T21:52:33.406Z,1.90
2023-05-04T21:55:00.252Z,1.77
2023-05-04T21:57:27.646Z,2.07
2023-05-04T21:59:54.457Z,2.17
2023-05-04T22:02:21.194Z,1.93
2023-05-04T22:04:47.939Z,1.93
2023-05-04T22:07:15.523Z,2.20
2023-05-04T22:09:42.413Z,2.10
2023-05-04T22:12:09.158Z,2.10
2023-05-04T22:14:35.924Z,1.77
2023-05-04T22:17:02.724Z,2.73
2023-05-04T22:19:29.461Z,1.63
2023-05-04T22:21:56.258Z,2.00
2023-05-04T22:24:23.138Z,1.73
2023-05-04T22:26:49.922Z,1.90
2023-05-04T22:29:16.663Z,1.40
2023-05-04T22:31:43.467Z,1.90
2023-05-04T22:34:10.343Z,1.63
2023-05-04T22:36:37.116Z,1.33
2023-05-04T22:39:04.017Z,1.67
2023-05-04T22:41:30.771Z,1.57
2023-05-04T22:43:57.540Z,1.30
2023-05-04T22:46:25.569Z,1.60
2023-05-04T22:48:52.515Z,1.70
2023-05-04T22:51:19.238Z,1.43
2023-05-04T22:53:46.004Z,1.50
2023-05-04T22:56:12.828Z,1.53
2023-05-04T22:58:39.688Z,1.33
2023-05-04T23:01:10.516Z,1.50
2023-05-04T23:03:38.331Z,1.87
2023-05-04T23:06:05.695Z,1.53
2023-05-04T23:08:32.397Z,1.70
2023-05-04T23:10:59.143Z,1.57
2023-05-04T23:13:26.095Z,1.70
2023-05-04T23:15:53.246Z,1.70
2023-05-04T23:18:20.264Z,1.60
2023-05-04T23:20:47.007Z,1.80
2023-05-04T23:23:13.725Z,1.77
2023-05-04T23:25:40.498Z,1.90
2023-05-04T23:28:07.324Z,1.83
2023-05-04T23:30:34.064Z,1.77
2023-05-04T23:33:00.814Z,1.90
2023-05-04T23:35:28.169Z,1.47
2023-05-04T23:37:54.996Z,1.63
2023-05-04T23:40:21.888Z,1.90
2023-05-04T23:42:50.592Z,1.73
2023-05-04T23:45:17.492Z,2.23
2023-05-04T23:47:44.392Z,2.03
2023-05-04T23:50:11.671Z,1.80
2023-05-04T23:52:38.604Z,2.13
2023-05-04T23:55:06.710Z,2.03
2023-05-04T23:57:33.614Z,2.10
